createdAt,value
2018-12-23T00:00:59.670Z,12.10
2018-12-23T00:03:28.001Z,13.97
2018-12-23T00:05:57.043Z,11.00
2018-12-23T00:08:25.510Z,12.60
2018-12-23T00:10:54.850Z,15.73
2018-12-23T00:13:23.521Z,16.07
2018-12-23T00:15:52.403Z,15.07
2018-12-23T00:18:21.193Z,13.57
2018-12-23T00:20:50.258Z,14.53
2018-12-23T00:23:20.510Z,10.27
2018-12-23T00:25:49.097Z,8.73
2018-12-23T00:28:17.636Z,8.27
2018-12-23T00:30:46.384Z,10.67
2018-12-23T00:33:14.863Z,12.53
2018-12-23T00:35:43.967Z,14.00
2018-12-23T00:38:13.571Z,12.50
2018-12-23T00:40:42.229Z,14.17
2018-12-23T00:43:11.957Z,12.93
2018-12-23T00:45:43.382Z,14.93
2018-12-23T00:48:12.930Z,14.00
2018-12-23T00:50:41.880Z,13.20
2018-12-23T00:53:11.858Z,14.87
2018-12-23T00:55:40.709Z,14.87
2018-12-23T00:58:09.552Z,14.30
2018-12-23T01:00:40.906Z,13.37
2018-12-23T01:03:10.186Z,13.77
2018-12-23T01:05:39.180Z,13.07
2018-12-23T01:08:10.918Z,10.83
2018-12-23T01:10:40.893Z,15.30
2018-12-23T01:13:10.119Z,12.63
2018-12-23T01:15:39.548Z,10.03
2018-12-23T01:18:09.884Z,14.37
2018-12-23T01:20:39.419Z,13.00
2018-12-23T01:23:08.739Z,11.23
2018-12-23T01:25:37.829Z,12.40
2018-12-23T01:28:06.793Z,12.83
2018-12-23T01:30:38.444Z,13.07
2018-12-23T01:33:07.337Z,10.80
2018-12-23T01:35:37.220Z,9.13
2018-12-23T01:38:06.159Z,9.50
2018-12-23T01:40:36.912Z,10.83
2018-12-23T01:43:05.390Z,8.47
2018-12-23T01:45:34.559Z,8.63
2018-12-23T01:48:04.550Z,9.60
2018-12-23T01:50:33.692Z,9.63
2018-12-23T01:53:03.450Z,10.00
2018-12-23T01:55:32.844Z,9.93
2018-12-23T01:58:01.210Z,9.83
2018-12-23T02:00:30.110Z,10.27
2018-12-23T02:03:03.551Z,9.47
2018-12-23T02:05:32.412Z,9.87
2018-12-23T02:08:02.337Z,10.10
2018-12-23T02:10:31.993Z,10.07
2018-12-23T02:13:01.133Z,10.27
2018-12-23T02:15:29.823Z,11.47
2018-12-23T02:17:59.659Z,10.23
2018-12-23T02:20:28.719Z,10.17
2018-12-23T02:22:57.304Z,10.37
2018-12-23T02:25:26.569Z,9.70
2018-12-23T02:27:55.529Z,9.17
2018-12-23T02:30:24.706Z,9.93
2018-12-23T02:32:53.483Z,9.47
2018-12-23T02:35:22.207Z,9.00
2018-12-23T02:37:51.757Z,9.23
2018-12-23T02:40:20.342Z,9.03
2018-12-23T02:42:49.102Z,10.07
2018-12-23T02:45:17.843Z,9.07
2018-12-23T02:47:46.646Z,9.07
2018-12-23T02:50:17.367Z,9.17
2018-12-23T02:52:46.521Z,10.03
2018-12-23T02:55:15.302Z,10.80
2018-12-23T02:57:43.707Z,10.37
2018-12-23T03:00:12.227Z,9.07
2018-12-23T03:02:41.017Z,10.57
2018-12-23T03:05:12.820Z,9.97
2018-12-23T03:07:41.348Z,10.33
2018-12-23T03:10:13.326Z,11.10
2018-12-23T03:12:42.286Z,10.87
2018-12-23T03:15:13.650Z,11.57
2018-12-23T03:17:42.623Z,11.27
2018-12-23T03:20:13.776Z,11.33
2018-12-23T03:22:43.719Z,9.97
2018-12-23T03:25:13.706Z,9.07
2018-12-23T03:27:43.604Z,8.90
2018-12-23T03:30:13.977Z,7.93
2018-12-23T03:32:42.778Z,8.10
2018-12-23T03:35:13.373Z,9.60
2018-12-23T03:37:42.287Z,9.47
2018-12-23T03:40:13.951Z,10.50
2018-12-23T03:42:43.558Z,10.73
2018-12-23T03:45:14.278Z,9.73
2018-12-23T03:47:43.103Z,9.93
2018-12-23T03:50:13.558Z,11.03
2018-12-23T03:52:42.674Z,10.97
2018-12-23T03:55:13.813Z,12.40
2018-12-23T03:57:42.697Z,13.00
2018-12-23T04:00:11.152Z,11.43
2018-12-23T04:02:39.721Z,11.57
2018-12-23T04:05:12.384Z,11.27
2018-12-23T04:07:42.048Z,11.23
2018-12-23T04:10:12.754Z,12.43
2018-12-23T04:12:42.349Z,12.27
2018-12-23T04:15:13.581Z,12.17
2018-12-23T04:17:42.295Z,23.60
2018-12-23T04:20:15.391Z,14.13
2018-12-23T04:22:44.139Z,15.60
2018-12-23T04:25:13.547Z,14.13
2018-12-23T04:27:42.132Z,13.47
2018-12-23T04:30:12.554Z,11.87
2018-12-23T04:32:42.941Z,13.37
2018-12-23T04:35:13.883Z,13.30
2018-12-23T04:37:42.318Z,12.93
2018-12-23T04:40:13.662Z,13.07
2018-12-23T04:42:43.034Z,8.73
2018-12-23T04:45:13.735Z,9.73
2018-12-23T04:47:42.949Z,8.83
2018-12-23T04:50:14.030Z,11.30
2018-12-23T04:52:43.005Z,13.47
2018-12-23T04:55:14.141Z,12.23
2018-12-23T04:57:42.530Z,11.20
2018-12-23T05:00:11.165Z,10.70
2018-12-23T05:02:39.597Z,15.27
2018-12-23T05:05:11.088Z,16.20
2018-12-23T05:07:40.658Z,14.03
2018-12-23T05:10:11.149Z,13.73
2018-12-23T05:12:40.602Z,13.53
2018-12-23T05:15:12.166Z,14.60
2018-12-23T05:17:42.583Z,13.40
2018-12-23T05:20:14.323Z,14.53
2018-12-23T05:22:42.938Z,15.50
2018-12-23T05:25:12.753Z,12.53
2018-12-23T05:27:41.639Z,16.20
2018-12-23T05:30:12.833Z,15.80
2018-12-23T05:32:42.642Z,13.53
2018-12-23T05:35:14.881Z,14.03
2018-12-23T05:37:43.450Z,15.57
2018-12-23T05:40:15.326Z,16.13
2018-12-23T05:42:44.286Z,14.47
2018-12-23T05:45:15.864Z,23.27
2018-12-23T05:47:44.859Z,11.77
2018-12-23T05:50:17.133Z,19.57
2018-12-23T05:52:46.353Z,24.27
2018-12-23T05:55:24.124Z,34.83
2018-12-23T05:57:53.406Z,16.20
2018-12-23T06:00:25.386Z,11.20
2018-12-23T06:02:53.975Z,12.47
2018-12-23T06:05:22.697Z,15.53
2018-12-23T06:07:51.236Z,11.73
2018-12-23T06:10:20.167Z,17.93
2018-12-23T06:12:49.792Z,14.90
2018-12-23T06:15:18.635Z,20.50
2018-12-23T06:17:47.685Z,15.93
2018-12-23T06:20:17.313Z,16.97
2018-12-23T06:22:46.394Z,18.10
2018-12-23T06:25:15.022Z,13.93
2018-12-23T06:27:46.431Z,11.00
2018-12-23T06:30:15.050Z,13.77
2018-12-23T06:32:43.958Z,8.63
2018-12-23T06:35:13.823Z,10.83
2018-12-23T06:37:43.478Z,20.10
2018-12-23T06:40:12.896Z,21.33
2018-12-23T06:42:44.496Z,12.10
2018-12-23T06:45:13.206Z,16.27
2018-12-23T06:47:42.419Z,19.23
2018-12-23T06:50:12.837Z,10.87
2018-12-23T06:52:41.215Z,15.40
2018-12-23T06:55:11.755Z,22.77
2018-12-23T06:57:41.158Z,18.37
2018-12-23T07:00:10.254Z,27.37
2018-12-23T07:02:38.627Z,9.33
2018-12-23T07:05:07.276Z,12.17
2018-12-23T07:07:38.078Z,19.93
2018-12-23T07:10:10.809Z,25.23
2018-12-23T07:12:39.184Z,29.33
2018-12-23T07:15:10.991Z,33.13
2018-12-23T07:17:39.459Z,44.67
2018-12-23T07:20:10.935Z,47.20
2018-12-23T07:22:39.495Z,37.57
2018-12-23T07:25:10.121Z,67.73
2018-12-23T07:27:38.922Z,65.53
2018-12-23T07:30:10.306Z,70.60
2018-12-23T07:32:39.522Z,48.73
2018-12-23T07:35:09.707Z,43.20
2018-12-23T07:37:40.209Z,60.87
2018-12-23T07:40:11.484Z,46.60
2018-12-23T07:42:39.851Z,36.70
2018-12-23T07:45:11.535Z,18.73
2018-12-23T07:47:40.451Z,25.10
2018-12-23T07:50:11.376Z,28.47
2018-12-23T07:52:39.735Z,27.57
2018-12-23T07:55:10.431Z,20.10
2018-12-23T07:57:40.098Z,14.23
2018-12-23T08:00:09.120Z,22.20
2018-12-23T08:02:37.800Z,18.83
2018-12-23T08:05:06.208Z,12.80
2018-12-23T08:07:36.218Z,15.10
2018-12-23T08:10:05.267Z,16.73
2018-12-23T08:12:33.806Z,15.83
2018-12-23T08:15:02.117Z,18.83
2018-12-23T08:17:30.721Z,35.47
2018-12-23T08:19:59.171Z,39.03
2018-12-23T08:22:27.725Z,55.03
2018-12-23T08:24:57.260Z,11.50
2018-12-23T08:27:25.961Z,14.03
2018-12-23T08:29:54.308Z,31.47
2018-12-23T08:32:23.200Z,36.03
2018-12-23T08:34:52.047Z,32.60
2018-12-23T08:37:20.352Z,23.17
2018-12-23T08:39:50.303Z,23.23
2018-12-23T08:42:18.852Z,17.37
2018-12-23T08:44:47.293Z,12.43
2018-12-23T08:47:15.727Z,11.57
2018-12-23T08:49:45.063Z,6.20
2018-12-23T08:52:13.487Z,32.90
2018-12-23T08:54:42.776Z,23.03
2018-12-23T08:57:11.129Z,63.47
2018-12-23T08:59:40.244Z,31.97
2018-12-23T09:02:09.376Z,36.63
2018-12-23T09:04:38.086Z,24.50
2018-12-23T09:07:06.651Z,71.23
2018-12-23T09:09:35.031Z,45.80
2018-12-23T09:12:04.638Z,28.13
2018-12-23T09:14:33.399Z,29.90
2018-12-23T09:17:02.119Z,19.63
2018-12-23T09:19:32.114Z,23.67
2018-12-23T09:22:02.158Z,37.03
2018-12-23T09:24:31.342Z,94.77
2018-12-23T09:27:00.855Z,67.43
2018-12-23T09:29:29.436Z,42.03
2018-12-23T09:31:58.026Z,43.57
2018-12-23T09:34:26.551Z,35.37
2018-12-23T09:36:54.970Z,25.40
2018-12-23T09:39:23.776Z,42.63
2018-12-23T09:41:52.161Z,17.10
2018-12-23T09:44:20.480Z,34.20
2018-12-23T09:46:49.018Z,57.40
2018-12-23T09:49:17.392Z,38.73
2018-12-23T09:51:45.669Z,73.77
2018-12-23T09:54:13.999Z,58.13
2018-12-23T09:56:42.434Z,43.73
2018-12-23T09:59:11.283Z,29.80
2018-12-23T10:01:39.707Z,35.93
2018-12-23T10:04:08.083Z,40.03
2018-12-23T10:06:36.485Z,28.23
2018-12-23T10:09:06.392Z,17.60
2018-12-23T10:11:34.752Z,14.43
2018-12-23T10:14:03.153Z,67.30
2018-12-23T10:16:31.620Z,15.67
2018-12-23T10:19:00.185Z,18.43
2018-12-23T10:21:28.671Z,8.87
2018-12-23T10:23:57.173Z,10.33
2018-12-23T10:26:25.720Z,18.03
2018-12-23T10:28:54.096Z,27.93
2018-12-23T10:31:22.622Z,25.40
2018-12-23T10:33:50.994Z,13.87
2018-12-23T10:36:19.604Z,16.03
2018-12-23T10:46:09.816Z,8.33
2018-12-23T10:49:01.328Z,8.80
2018-12-23T10:51:29.933Z,12.33
2018-12-23T10:53:58.721Z,29.57
2018-12-23T10:56:27.171Z,10.30
2018-12-23T10:58:56.297Z,8.63
2018-12-23T11:01:25.165Z,12.97
2018-12-23T11:03:53.737Z,14.97
2018-12-23T11:06:22.781Z,37.37
2018-12-23T11:08:52.988Z,22.83
2018-12-23T11:11:21.575Z,11.40
2018-12-23T11:13:50.154Z,10.67
2018-12-23T11:16:19.788Z,10.23
2018-12-23T11:18:50.403Z,12.17
2018-12-23T11:21:18.986Z,8.33
2018-12-23T11:23:47.474Z,11.47
2018-12-23T11:26:16.896Z,9.13
2018-12-23T11:28:45.354Z,9.37
2018-12-23T11:31:13.935Z,7.77
2018-12-23T11:33:42.323Z,8.93
2018-12-23T11:36:11.159Z,8.60
2018-12-23T11:38:40.654Z,8.40
2018-12-23T11:41:09.311Z,9.67
2018-12-23T11:43:37.669Z,10.67
2018-12-23T11:46:06.662Z,10.00
2018-12-23T11:48:36.075Z,10.37
2018-12-23T11:51:05.632Z,9.00
2018-12-23T11:53:34.983Z,8.13
2018-12-23T11:56:04.079Z,9.67
2018-12-23T11:58:32.561Z,9.53
2018-12-23T12:01:01.345Z,9.77
2018-12-23T12:03:29.932Z,7.27
2018-12-23T12:05:58.964Z,7.50
2018-12-23T12:08:28.028Z,7.70
2018-12-23T12:10:56.499Z,6.20
2018-12-23T12:13:24.988Z,6.80
2018-12-23T12:15:53.360Z,7.00
2018-12-23T12:18:21.853Z,8.27
2018-12-23T12:20:50.319Z,9.50
2018-12-23T12:23:18.715Z,7.77
2018-12-23T12:25:47.534Z,8.00
2018-12-23T12:28:15.879Z,8.07
2018-12-23T12:30:44.903Z,7.37
2018-12-23T12:33:13.253Z,6.53
2018-12-23T12:35:41.633Z,7.90
2018-12-23T12:38:12.113Z,7.90
2018-12-23T12:40:40.843Z,8.40
2018-12-23T12:43:09.110Z,7.30
2018-12-23T12:45:37.407Z,7.77
2018-12-23T12:48:05.718Z,7.67
2018-12-23T12:50:34.051Z,7.20
2018-12-23T12:53:03.066Z,6.07
2018-12-23T12:55:32.256Z,6.17
2018-12-23T12:58:00.737Z,6.50
2018-12-23T13:00:29.528Z,6.23
2018-12-23T13:02:58.015Z,6.10
2018-12-23T13:05:26.695Z,6.40
2018-12-23T13:07:55.892Z,5.63
2018-12-23T13:10:24.482Z,4.17
2018-12-23T13:12:52.850Z,4.43
2018-12-23T13:15:21.854Z,3.80
2018-12-23T13:17:50.335Z,5.27
2018-12-23T13:20:18.952Z,5.93
2018-12-23T13:22:47.460Z,5.07
2018-12-23T13:25:15.831Z,4.30
2018-12-23T13:27:44.430Z,4.10
2018-12-23T13:30:14.214Z,3.57
2018-12-23T13:32:42.752Z,3.73
2018-12-23T13:35:14.916Z,3.30
2018-12-23T13:37:43.310Z,3.90
2018-12-23T13:40:19.679Z,3.20
2018-12-23T13:42:58.449Z,3.23
2018-12-23T13:45:36.097Z,4.20
2018-12-23T13:48:12.737Z,4.23
2018-12-23T13:50:52.820Z,4.33
2018-12-23T13:53:43.130Z,4.20
2018-12-23T13:56:26.351Z,2.90
2018-12-23T13:59:02.949Z,2.80
2018-12-23T14:01:44.243Z,3.07
2018-12-23T14:08:20.266Z,6.90
2018-12-23T14:11:15.498Z,4.57
2018-12-23T14:13:45.587Z,4.20
2018-12-23T14:16:15.775Z,3.90
2018-12-23T14:18:45.730Z,3.63
2018-12-23T14:21:15.936Z,3.13
2018-12-23T14:23:45.968Z,2.97
2018-12-23T14:26:16.583Z,3.70
2018-12-23T14:28:46.691Z,6.27
2018-12-23T14:31:17.863Z,4.20
2018-12-23T14:33:47.958Z,3.97
2018-12-23T14:36:18.008Z,8.67
2018-12-23T14:38:48.373Z,5.10
2018-12-23T14:41:18.352Z,5.87
2018-12-23T14:43:48.626Z,9.70
2018-12-23T14:46:22.186Z,9.73
2018-12-23T14:48:52.409Z,10.17
2018-12-23T14:51:23.586Z,7.57
2018-12-23T14:53:53.497Z,3.93
2018-12-23T14:56:25.420Z,5.50
2018-12-23T14:58:55.753Z,11.47
2018-12-23T15:01:25.924Z,9.57
2018-12-23T15:03:55.870Z,6.57
2018-12-23T15:06:25.830Z,6.40
2018-12-23T15:08:57.454Z,6.10
2018-12-23T15:11:27.849Z,6.90
2018-12-23T15:13:58.909Z,7.03
2018-12-23T15:16:28.889Z,8.07
2018-12-23T15:19:00.501Z,8.60
2018-12-23T15:21:30.550Z,7.40
2018-12-23T15:24:00.534Z,3.03
2018-12-23T15:26:30.848Z,2.80
2018-12-23T15:29:00.992Z,2.00
2018-12-23T15:31:32.312Z,2.30
2018-12-23T15:34:03.880Z,2.43
2018-12-23T15:36:35.444Z,2.40
2018-12-23T15:39:07.347Z,2.47
2018-12-23T15:41:42.303Z,2.53
2018-12-23T15:44:14.965Z,3.13
2018-12-23T15:46:45.234Z,2.73
2018-12-23T15:49:21.061Z,2.70
2018-12-23T15:51:52.043Z,2.90
2018-12-23T15:54:22.106Z,2.93
2018-12-23T15:56:52.007Z,3.43
2018-12-23T15:59:21.995Z,2.80
2018-12-23T16:01:51.911Z,3.40
2018-12-23T16:04:21.997Z,3.97
2018-12-23T16:06:52.246Z,3.43
2018-12-23T16:09:22.383Z,3.53
2018-12-23T16:11:53.698Z,3.07
2018-12-23T16:14:24.276Z,3.20
2018-12-23T16:16:54.277Z,3.30
2018-12-23T16:19:24.287Z,4.00
2018-12-23T16:21:54.562Z,3.40
2018-12-23T16:24:26.169Z,23.73
2018-12-23T16:26:56.705Z,5.80
2018-12-23T16:29:26.852Z,17.40
2018-12-23T16:31:57.037Z,12.90
2018-12-23T16:34:27.752Z,15.10
2018-12-23T16:36:58.415Z,18.20
2018-12-23T16:39:29.524Z,9.57
2018-12-23T16:41:59.572Z,6.37
2018-12-23T16:44:30.353Z,9.43
2018-12-23T16:47:01.865Z,6.73
2018-12-23T16:49:31.887Z,7.07
2018-12-23T16:52:02.190Z,6.50
2018-12-23T16:54:33.353Z,6.50
2018-12-23T16:57:03.449Z,5.13
2018-12-23T16:59:33.711Z,5.33
2018-12-23T17:02:03.676Z,5.37
2018-12-23T17:04:35.328Z,5.73
2018-12-23T17:07:05.467Z,4.30
2018-12-23T17:09:36.933Z,5.07
2018-12-23T17:12:06.903Z,3.07
2018-12-23T17:14:38.491Z,3.40
2018-12-23T17:17:08.436Z,3.40
2018-12-23T17:19:38.365Z,3.17
2018-12-23T17:22:08.371Z,3.80
2018-12-23T17:24:38.369Z,3.43
2018-12-23T17:27:10.219Z,2.90
2018-12-23T17:29:40.253Z,4.10
2018-12-23T17:32:12.776Z,3.13
2018-12-23T17:34:43.998Z,3.43
2018-12-23T17:37:13.930Z,4.20
2018-12-23T17:39:43.902Z,4.27
2018-12-23T17:42:13.899Z,5.07
2018-12-23T17:44:43.791Z,3.50
2018-12-23T17:47:13.736Z,2.73
2018-12-23T17:49:43.837Z,4.93
2018-12-23T17:52:22.955Z,3.63
2018-12-23T17:54:46.681Z,3.60
2018-12-23T17:57:16.968Z,4.13
2018-12-23T17:59:46.904Z,4.27
2018-12-23T18:02:18.676Z,5.67
2018-12-23T18:04:49.220Z,4.30
2018-12-23T18:07:19.489Z,6.20
2018-12-23T18:09:49.642Z,6.20
2018-12-23T18:12:19.677Z,8.20
2018-12-23T18:14:52.976Z,8.23
2018-12-23T18:17:25.663Z,8.50
2018-12-23T18:19:55.988Z,8.73
2018-12-23T18:22:25.991Z,9.03
2018-12-23T18:24:56.216Z,9.17
2018-12-23T18:27:26.379Z,8.00
2018-12-23T18:29:57.315Z,9.47
2018-12-23T18:32:27.288Z,10.30
2018-12-23T18:34:57.409Z,9.23
2018-12-23T18:37:27.412Z,9.10
2018-12-23T18:40:07.466Z,9.33
2018-12-23T18:42:41.569Z,11.30
2018-12-23T18:45:17.588Z,8.50
2018-12-23T18:47:47.928Z,11.37
2018-12-23T18:50:20.063Z,11.83
2018-12-23T18:52:51.328Z,10.57
2018-12-23T18:55:21.506Z,11.53
2018-12-23T18:57:54.012Z,10.97
2018-12-23T19:00:27.705Z,10.47
2018-12-23T19:02:57.818Z,12.40
2018-12-23T19:05:27.994Z,12.93
2018-12-23T19:07:58.334Z,12.80
2018-12-23T19:10:41.760Z,12.60
2018-12-23T19:13:18.482Z,13.97
2018-12-23T19:16:00.486Z,12.50
2018-12-23T19:18:48.546Z,14.93
2018-12-23T19:21:33.702Z,13.90
2018-12-23T19:24:21.654Z,14.33
2018-12-23T19:27:12.821Z,13.50
2018-12-23T19:30:02.574Z,14.17
2018-12-23T19:32:47.538Z,11.53
2018-12-23T19:35:29.973Z,16.43
2018-12-23T19:38:18.241Z,17.40
2018-12-23T19:40:57.258Z,12.27
2018-12-23T19:43:45.290Z,14.73
2018-12-23T19:46:54.491Z,11.40
2018-12-23T19:49:36.434Z,15.63
2018-12-23T19:52:35.231Z,15.60
2018-12-23T19:55:19.231Z,16.20
2018-12-23T19:58:13.467Z,18.53
2018-12-23T20:00:51.683Z,16.90
2018-12-23T20:03:42.718Z,20.73
2018-12-23T20:06:27.656Z,13.90
2018-12-23T20:09:11.706Z,17.90
2018-12-23T20:12:03.651Z,19.43
2018-12-23T20:14:55.678Z,19.50
2018-12-23T20:17:44.012Z,24.60
2018-12-23T20:20:26.510Z,24.13
2018-12-23T20:23:33.037Z,21.30
2018-12-23T20:26:13.199Z,24.63
2018-12-23T20:29:06.185Z,24.77
2018-12-23T20:31:58.100Z,25.37
2018-12-23T20:34:31.094Z,26.80
2018-12-23T20:37:05.543Z,24.73
2018-12-23T20:39:54.313Z,21.40
2018-12-23T20:42:46.974Z,25.67
2018-12-23T20:45:33.069Z,25.83
2018-12-23T20:48:15.170Z,23.87
2018-12-23T20:50:54.040Z,25.97
2018-12-23T20:53:42.199Z,27.37
2018-12-23T20:56:16.996Z,25.10
2018-12-23T20:58:53.006Z,28.77
2018-12-23T21:01:44.084Z,30.13
2018-12-23T21:04:33.643Z,22.73
2018-12-23T21:07:32.514Z,51.37
2018-12-23T21:10:05.814Z,36.27
2018-12-23T21:12:58.505Z,45.37
2018-12-23T21:15:55.721Z,36.63
2018-12-23T21:18:53.057Z,43.13
2018-12-23T21:21:47.203Z,35.50
2018-12-23T21:24:26.182Z,25.97
2018-12-23T21:27:26.353Z,34.17
2018-12-23T21:30:15.227Z,62.67
2018-12-23T21:33:00.821Z,75.37
2018-12-23T21:35:36.593Z,51.57
2018-12-23T21:38:29.579Z,54.47
2018-12-23T21:41:24.351Z,52.77
2018-12-23T21:44:28.927Z,46.97
2018-12-23T21:47:23.089Z,25.97
2018-12-23T21:50:02.759Z,26.10
2018-12-23T21:52:39.842Z,24.33
2018-12-23T21:55:27.491Z,27.07
2018-12-23T21:58:18.057Z,28.47
2018-12-23T22:01:08.063Z,28.57
2018-12-23T22:03:56.938Z,37.77
2018-12-23T22:06:50.451Z,33.47
2018-12-23T22:09:23.944Z,43.67
2018-12-23T22:12:21.398Z,33.03
2018-12-23T22:14:52.430Z,27.47
2018-12-23T22:17:23.303Z,28.70
2018-12-23T22:19:54.017Z,31.53
2018-12-23T22:22:27.483Z,31.40
2018-12-23T22:24:58.478Z,30.40
2018-12-23T22:27:28.835Z,41.10
2018-12-23T22:30:00.412Z,29.07
2018-12-23T22:32:30.673Z,34.97
2018-12-23T22:35:03.662Z,47.70
2018-12-23T22:37:35.619Z,58.63
2018-12-23T22:40:07.323Z,60.47
2018-12-23T22:42:38.693Z,37.93
2018-12-23T22:45:08.972Z,39.67
2018-12-23T22:47:41.565Z,42.77
2018-12-23T22:50:17.491Z,45.97
2018-12-23T22:52:48.302Z,95.53
2018-12-23T22:55:18.562Z,30.27
2018-12-23T22:57:49.050Z,53.37
2018-12-23T23:00:20.795Z,65.90
2018-12-23T23:02:53.403Z,78.07
2018-12-23T23:05:27.451Z,87.37
2018-12-23T23:08:01.824Z,95.90
2018-12-23T23:10:31.934Z,61.83
2018-12-23T23:13:02.242Z,77.00
2018-12-23T23:15:32.539Z,69.63
2018-12-23T23:18:02.746Z,53.97
2018-12-23T23:20:35.018Z,30.33
2018-12-23T23:23:08.831Z,57.67
2018-12-23T23:25:39.008Z,64.33
2018-12-23T23:28:09.842Z,81.37
2018-12-23T23:30:41.223Z,18.73
2018-12-23T23:33:11.460Z,82.47
2018-12-23T23:35:41.839Z,49.97
2018-12-23T23:38:12.218Z,35.80
2018-12-23T23:40:43.399Z,29.97
2018-12-23T23:43:14.973Z,82.03
2018-12-23T23:45:45.473Z,40.77
2018-12-23T23:48:16.274Z,85.53
2018-12-23T23:50:48.880Z,80.30
2018-12-23T23:53:19.265Z,72.67
2018-12-23T23:56:01.023Z,35.10
2018-12-23T23:58:33.555Z,27.03
